createdAt,value
2023-03-15T00:00:27.308Z,96.02
2023-03-15T00:01:27.313Z,95.77
2023-03-15T00:02:27.512Z,95.67
2023-03-15T00:03:27.280Z,95.36
2023-03-15T00:04:27.234Z,95.46
2023-03-15T00:05:27.234Z,95.56
2023-03-15T00:06:27.206Z,95.56
2023-03-15T00:07:27.195Z,95.46
2023-03-15T00:08:27.213Z,95.36
2023-03-15T00:09:27.182Z,95.46
2023-03-15T00:10:27.184Z,95.46
2023-03-15T00:11:27.166Z,95.36
2023-03-15T00:12:27.148Z,95.25
2023-03-15T00:13:27.136Z,95.25
2023-03-15T00:14:27.126Z,95.04
2023-03-15T00:15:27.301Z,95.25
2023-03-15T00:16:27.139Z,95.25
2023-03-15T00:17:27.086Z,95.36
2023-03-15T00:18:27.095Z,95.56
2023-03-15T00:19:27.067Z,95.67
2023-03-15T00:20:27.056Z,95.56
2023-03-15T00:21:27.065Z,95.56
2023-03-15T00:22:27.035Z,95.46
2023-03-15T00:23:27.027Z,95.25
2023-03-15T00:24:27.019Z,95.04
2023-03-15T00:25:27.005Z,94.84
2023-03-15T00:26:27.018Z,94.94
2023-03-15T00:27:26.983Z,95.04
2023-03-15T00:28:26.988Z,95.15
2023-03-15T00:29:27.028Z,95.04
2023-03-15T00:30:26.960Z,94.94
2023-03-15T00:31:26.976Z,95.09
2023-03-15T00:32:26.983Z,95.40
2023-03-15T00:33:26.927Z,95.50
2023-03-15T00:34:26.920Z,95.71
2023-03-15T00:35:27.021Z,95.71
2023-03-15T00:36:26.904Z,95.61
2023-03-15T00:37:26.877Z,95.61
2023-03-15T00:38:26.869Z,95.61
2023-03-15T00:39:26.878Z,95.61
2023-03-15T00:40:26.849Z,95.71
2023-03-15T00:41:26.850Z,95.92
2023-03-15T00:42:26.829Z,96.12
2023-03-15T00:43:26.816Z,96.33
2023-03-15T00:44:27.016Z,96.19
2023-03-15T00:45:26.798Z,95.98
2023-03-15T00:46:26.831Z,95.77
2023-03-15T00:47:26.767Z,95.56
2023-03-15T00:48:26.770Z,95.77
2023-03-15T00:49:26.769Z,95.77
2023-03-15T00:50:26.754Z,95.87
2023-03-15T00:51:26.729Z,96.08
2023-03-15T00:52:26.738Z,96.19
2023-03-15T00:53:26.720Z,95.98
2023-03-15T00:54:26.706Z,95.56
2023-03-15T00:55:26.689Z,95.71
2023-03-15T00:56:26.688Z,95.77
2023-03-15T00:57:26.669Z,95.67
2023-03-15T00:58:27.626Z,95.71
2023-03-15T00:59:26.650Z,95.92
2023-03-15T01:00:26.656Z,96.08
2023-03-15T01:01:26.636Z,95.98
2023-03-15T01:02:26.704Z,95.87
2023-03-15T01:03:26.608Z,95.67
2023-03-15T01:04:26.603Z,95.56
2023-03-15T01:05:26.604Z,95.56
2023-03-15T01:06:26.613Z,95.56
2023-03-15T01:07:26.560Z,95.46
2023-03-15T01:08:26.557Z,95.40
2023-03-15T01:09:26.539Z,95.40
2023-03-15T01:10:26.531Z,95.40
2023-03-15T01:11:26.523Z,95.40
2023-03-15T01:12:26.511Z,95.09
2023-03-15T01:13:26.500Z,94.98
2023-03-15T01:14:26.499Z,95.09
2023-03-15T01:15:26.483Z,95.19
2023-03-15T01:16:26.541Z,95.34
2023-03-15T01:17:26.480Z,95.34
2023-03-15T01:18:26.452Z,95.44
2023-03-15T01:19:26.440Z,95.54
2023-03-15T01:20:26.430Z,95.54
2023-03-15T01:21:26.420Z,95.54
2023-03-15T01:22:26.409Z,95.54
2023-03-15T01:23:26.392Z,95.65
2023-03-15T01:24:26.388Z,95.54
2023-03-15T01:25:26.388Z,95.54
2023-03-15T01:26:26.372Z,95.54
2023-03-15T01:27:26.350Z,95.44
2023-03-15T01:28:26.340Z,95.34
2023-03-15T01:29:26.331Z,95.23
2023-03-15T01:30:26.341Z,95.34
2023-03-15T01:31:26.380Z,95.34
2023-03-15T01:32:26.354Z,95.13
2023-03-15T01:33:26.290Z,95.03
2023-03-15T01:34:26.282Z,95.03
2023-03-15T01:35:26.261Z,95.13
2023-03-15T01:36:26.271Z,95.13
2023-03-15T01:37:26.242Z,95.03
2023-03-15T01:38:26.247Z,94.82
2023-03-15T01:39:26.222Z,94.71
2023-03-15T01:40:26.220Z,94.71
2023-03-15T01:41:26.202Z,94.55
2023-03-15T01:42:26.202Z,94.45
2023-03-15T01:43:26.192Z,94.51
2023-03-15T01:44:26.180Z,94.65
2023-03-15T01:45:26.169Z,94.65
2023-03-15T01:46:26.222Z,94.65
2023-03-15T01:47:26.174Z,94.65
2023-03-15T01:48:26.139Z,94.65
2023-03-15T01:49:26.127Z,94.65
2023-03-15T01:50:26.114Z,94.65
2023-03-15T01:51:26.096Z,94.65
2023-03-15T01:52:26.094Z,94.76
2023-03-15T01:53:26.079Z,94.65
2023-03-15T01:54:26.081Z,94.55
2023-03-15T01:55:26.081Z,94.45
2023-03-15T01:56:26.063Z,94.34
2023-03-15T01:57:26.041Z,94.13
2023-03-15T01:58:26.033Z,94.24
2023-03-15T01:59:26.039Z,94.34
2023-03-15T02:00:26.025Z,94.55
2023-03-15T02:01:26.001Z,94.55
2023-03-15T02:02:26.114Z,94.45
2023-03-15T02:03:26.007Z,94.55
2023-03-15T02:04:25.990Z,94.55
2023-03-15T02:05:25.952Z,94.55
2023-03-15T02:06:25.966Z,94.45
2023-03-15T02:07:25.933Z,94.34
2023-03-15T02:08:25.923Z,94.24
2023-03-15T02:09:25.912Z,94.24
2023-03-15T02:10:25.924Z,94.13
2023-03-15T02:11:25.889Z,94.03
2023-03-15T02:12:25.882Z,94.13
2023-03-15T02:13:25.882Z,94.13
2023-03-15T02:14:25.865Z,94.13
2023-03-15T02:15:25.864Z,94.03
2023-03-15T02:16:25.906Z,94.03
2023-03-15T02:17:25.833Z,94.13
2023-03-15T02:18:25.824Z,94.03
2023-03-15T02:19:25.806Z,93.93
2023-03-15T02:20:25.827Z,93.82
2023-03-15T02:21:25.784Z,93.82
2023-03-15T02:22:25.782Z,93.72
2023-03-15T02:23:25.765Z,93.51
2023-03-15T02:24:25.760Z,93.30
2023-03-15T02:25:25.745Z,93.30
2023-03-15T02:26:25.757Z,93.41
2023-03-15T02:27:25.763Z,93.41
2023-03-15T02:28:25.720Z,93.41
2023-03-15T02:29:25.711Z,93.30
2023-03-15T02:30:25.696Z,93.30
2023-03-15T02:31:25.737Z,93.20
2023-03-15T02:32:25.731Z,93.20
2023-03-15T02:33:25.656Z,92.99
2023-03-15T02:34:25.659Z,92.78
2023-03-15T02:35:25.663Z,92.78
2023-03-15T02:36:25.638Z,92.88
2023-03-15T02:37:25.635Z,92.99
2023-03-15T02:38:25.617Z,92.88
2023-03-15T02:39:25.606Z,92.82
2023-03-15T02:40:25.596Z,92.72
2023-03-15T02:41:25.577Z,92.68
2023-03-15T02:42:25.578Z,92.51
2023-03-15T02:43:25.608Z,92.41
2023-03-15T02:44:25.571Z,92.41
2023-03-15T02:45:25.537Z,92.20
2023-03-15T02:46:25.596Z,92.10
2023-03-15T02:47:25.518Z,92.20
2023-03-15T02:48:25.519Z,92.20
2023-03-15T02:49:25.492Z,91.78
2023-03-15T02:50:25.476Z,91.68
2023-03-15T02:51:25.485Z,91.78
2023-03-15T02:52:25.460Z,91.68
2023-03-15T02:53:25.459Z,91.68
2023-03-15T02:54:25.437Z,91.68
2023-03-15T02:55:25.450Z,91.47
2023-03-15T02:56:25.425Z,91.37
2023-03-15T02:57:25.417Z,91.47
2023-03-15T02:58:25.408Z,91.58
2023-03-15T02:59:25.387Z,91.58
2023-03-15T03:00:25.386Z,91.37
2023-03-15T03:01:25.449Z,91.47
2023-03-15T03:02:25.395Z,91.47
2023-03-15T03:03:25.354Z,91.37
2023-03-15T03:04:25.357Z,91.27
2023-03-15T03:05:25.357Z,91.16
2023-03-15T03:06:25.317Z,91.47
2023-03-15T03:07:25.299Z,91.47
2023-03-15T03:08:25.308Z,91.27
2023-03-15T03:09:25.293Z,91.06
2023-03-15T03:10:25.285Z,90.95
2023-03-15T03:11:25.282Z,90.95
2023-03-15T03:12:25.259Z,90.95
2023-03-15T03:13:25.261Z,90.64
2023-03-15T03:14:25.240Z,90.54
2023-03-15T03:15:25.253Z,90.64
2023-03-15T03:16:25.242Z,90.75
2023-03-15T03:17:25.220Z,90.64
2023-03-15T03:18:25.201Z,90.64
2023-03-15T03:19:25.199Z,90.58
2023-03-15T03:20:25.159Z,90.44
2023-03-15T03:21:25.151Z,90.44
2023-03-15T03:22:25.156Z,90.44
2023-03-15T03:23:25.135Z,90.12
2023-03-15T03:24:25.136Z,90.02
2023-03-15T03:25:25.129Z,89.92
2023-03-15T03:26:25.095Z,89.81
2023-03-15T03:27:25.085Z,89.70
2023-03-15T03:28:25.075Z,89.60
2023-03-15T03:29:25.072Z,89.60
2023-03-15T03:30:25.066Z,89.50
2023-03-15T03:31:25.053Z,89.60
2023-03-15T03:32:25.091Z,89.39
2023-03-15T03:33:25.033Z,89.29
2023-03-15T03:34:25.024Z,89.43
2023-03-15T03:35:25.024Z,89.18
2023-03-15T03:36:25.006Z,89.08
2023-03-15T03:37:25.003Z,89.18
2023-03-15T03:38:24.972Z,88.87
2023-03-15T03:39:24.973Z,88.98
2023-03-15T03:40:24.953Z,88.87
2023-03-15T03:41:24.937Z,88.77
2023-03-15T03:42:24.950Z,88.98
2023-03-15T03:43:24.933Z,88.98
2023-03-15T03:44:24.902Z,88.98
2023-03-15T03:45:24.902Z,88.87
2023-03-15T03:46:24.946Z,89.08
2023-03-15T03:47:24.890Z,89.50
2023-03-15T03:48:24.889Z,89.33
2023-03-15T03:49:24.891Z,89.60
2023-03-15T03:50:24.869Z,89.43
2023-03-15T03:51:24.840Z,89.54
2023-03-15T03:52:24.850Z,89.85
2023-03-15T03:53:24.831Z,89.75
2023-03-15T03:54:24.813Z,89.75
2023-03-15T03:55:24.790Z,89.95
2023-03-15T03:56:24.794Z,90.16
2023-03-15T03:57:24.792Z,90.16
2023-03-15T03:58:24.800Z,90.37
2023-03-15T03:59:24.760Z,90.16
2023-03-15T04:00:24.758Z,89.85
2023-03-15T04:01:24.734Z,89.95
2023-03-15T04:02:24.731Z,89.95
2023-03-15T04:03:24.723Z,89.75
2023-03-15T04:04:24.702Z,89.43
2023-03-15T04:05:24.690Z,89.23
2023-03-15T04:06:24.718Z,89.12
2023-03-15T04:07:24.663Z,89.12
2023-03-15T04:08:24.689Z,89.33
2023-03-15T04:09:24.632Z,89.33
2023-03-15T04:10:24.642Z,89.33
2023-03-15T04:11:24.642Z,89.33
2023-03-15T04:12:24.671Z,89.23
2023-03-15T04:13:24.612Z,89.33
2023-03-15T04:14:24.590Z,89.43
2023-03-15T04:15:24.575Z,89.64
2023-03-15T04:16:24.718Z,89.64
2023-03-15T04:17:24.552Z,89.54
2023-03-15T04:18:24.577Z,89.43
2023-03-15T04:19:24.532Z,89.48
2023-03-15T04:20:24.553Z,89.54
2023-03-15T04:21:24.549Z,89.43
2023-03-15T04:22:24.525Z,89.58
2023-03-15T04:23:24.514Z,89.58
2023-03-15T04:24:24.503Z,89.58
2023-03-15T04:25:24.508Z,89.54
2023-03-15T04:26:24.465Z,89.43
2023-03-15T04:27:24.453Z,89.43
2023-03-15T04:28:24.465Z,89.37
2023-03-15T04:29:24.451Z,89.37
2023-03-15T04:30:24.465Z,89.27
2023-03-15T04:31:24.458Z,89.27
2023-03-15T04:32:24.494Z,89.27
2023-03-15T04:33:24.412Z,89.37
2023-03-15T04:34:24.389Z,89.37
2023-03-15T04:35:24.399Z,89.37
2023-03-15T04:36:24.395Z,89.69
2023-03-15T04:37:24.362Z,89.69
2023-03-15T04:38:24.361Z,89.69
2023-03-15T04:39:24.340Z,89.89
2023-03-15T04:40:24.342Z,89.48
2023-03-15T04:41:24.331Z,89.37
2023-03-15T04:42:24.317Z,89.27
2023-03-15T04:43:24.362Z,89.37
2023-03-15T04:44:24.303Z,89.48
2023-03-15T04:45:24.292Z,89.37
2023-03-15T04:46:25.160Z,89.37
2023-03-15T04:47:24.255Z,89.06
2023-03-15T04:48:24.292Z,89.06
2023-03-15T04:49:24.245Z,88.96
2023-03-15T04:50:24.228Z,89.17
2023-03-15T04:51:24.212Z,89.06
2023-03-15T04:52:24.202Z,89.27
2023-03-15T04:53:24.214Z,89.37
2023-03-15T04:54:24.188Z,89.27
2023-03-15T04:55:24.189Z,89.37
2023-03-15T04:56:24.174Z,89.37
2023-03-15T04:57:24.144Z,89.27
2023-03-15T04:58:24.175Z,89.27
2023-03-15T04:59:24.144Z,89.37
2023-03-15T05:00:24.117Z,89.48
2023-03-15T05:01:24.114Z,89.48
2023-03-15T05:02:24.183Z,89.37
2023-03-15T05:03:24.095Z,89.37
2023-03-15T05:04:24.084Z,89.27
2023-03-15T05:05:24.088Z,89.27
2023-03-15T05:06:24.063Z,89.27
2023-03-15T05:07:24.107Z,89.06
2023-03-15T05:08:24.054Z,88.75
2023-03-15T05:09:24.021Z,88.85
2023-03-15T05:10:24.021Z,88.64
2023-03-15T05:11:24.013Z,88.23
2023-03-15T05:12:23.984Z,87.92
2023-03-15T05:13:23.983Z,88.12
2023-03-15T05:14:23.984Z,88.12
2023-03-15T05:15:24.012Z,88.12
2023-03-15T05:16:24.179Z,87.92
2023-03-15T05:17:23.949Z,87.75
2023-03-15T05:18:23.993Z,87.60
2023-03-15T05:19:23.926Z,87.43
2023-03-15T05:20:23.923Z,87.40
2023-03-15T05:21:23.979Z,87.50
2023-03-15T05:22:24.005Z,87.40
2023-03-15T05:23:23.888Z,87.40
2023-03-15T05:24:23.877Z,86.98
2023-03-15T05:25:23.865Z,86.98
2023-03-15T05:26:23.866Z,86.88
2023-03-15T05:27:23.925Z,87.08
2023-03-15T05:28:23.857Z,86.98
2023-03-15T05:29:23.818Z,86.77
2023-03-15T05:30:23.869Z,86.77
2023-03-15T05:31:23.847Z,86.88
2023-03-15T05:32:23.855Z,86.71
2023-03-15T05:33:23.788Z,86.81
2023-03-15T05:34:23.837Z,86.81
2023-03-15T05:35:24.665Z,86.71
2023-03-15T05:36:23.778Z,86.71
2023-03-15T05:37:23.725Z,86.50
2023-03-15T05:38:23.744Z,86.40
2023-03-15T05:39:23.704Z,86.50
2023-03-15T05:40:23.712Z,86.60
2023-03-15T05:41:23.695Z,86.60
2023-03-15T05:42:23.695Z,86.50
2023-03-15T05:43:23.667Z,86.40
2023-03-15T05:44:23.766Z,86.50
2023-03-15T05:45:23.675Z,86.50
2023-03-15T05:46:23.634Z,86.40
2023-03-15T05:47:23.626Z,86.40
2023-03-15T05:48:23.636Z,86.50
2023-03-15T05:49:23.594Z,86.50
2023-03-15T05:50:23.614Z,86.40
2023-03-15T05:51:23.594Z,86.19
2023-03-15T05:52:23.571Z,86.29
2023-03-15T05:53:23.553Z,86.29
2023-03-15T05:54:23.554Z,86.19
2023-03-15T05:55:23.542Z,86.08
2023-03-15T05:56:23.543Z,86.29
2023-03-15T05:57:23.524Z,86.19
2023-03-15T05:58:23.525Z,86.08
2023-03-15T05:59:23.492Z,85.94
2023-03-15T06:00:23.496Z,86.08
2023-03-15T06:01:23.488Z,86.08
2023-03-15T06:02:23.463Z,86.29
2023-03-15T06:03:23.506Z,86.50
2023-03-15T06:04:23.481Z,86.60
2023-03-15T06:05:23.436Z,86.40
2023-03-15T06:06:23.431Z,86.60
2023-03-15T06:07:23.406Z,86.50
2023-03-15T06:08:23.401Z,86.29
2023-03-15T06:09:23.401Z,86.40
2023-03-15T06:10:23.391Z,86.60
2023-03-15T06:11:23.383Z,86.71
2023-03-15T06:12:23.371Z,86.50
2023-03-15T06:13:23.347Z,86.15
2023-03-15T06:14:23.345Z,86.15
2023-03-15T06:15:23.332Z,86.04
2023-03-15T06:16:23.347Z,86.25
2023-03-15T06:17:23.322Z,85.94
2023-03-15T06:18:23.313Z,85.94
2023-03-15T06:19:23.280Z,85.94
2023-03-15T06:20:23.282Z,85.73
2023-03-15T06:21:23.251Z,85.83
2023-03-15T06:22:23.271Z,85.73
2023-03-15T06:23:23.241Z,85.73
2023-03-15T06:24:23.228Z,85.73
2023-03-15T06:25:23.235Z,85.63
2023-03-15T06:26:23.211Z,85.73
2023-03-15T06:27:23.222Z,85.63
2023-03-15T06:28:23.192Z,85.73
2023-03-15T06:29:23.171Z,85.94
2023-03-15T06:30:23.184Z,85.94
2023-03-15T06:31:23.150Z,85.83
2023-03-15T06:32:23.216Z,85.63
2023-03-15T06:33:23.142Z,85.59
2023-03-15T06:34:23.125Z,85.69
2023-03-15T06:35:23.102Z,85.59
2023-03-15T06:36:23.135Z,86.00
2023-03-15T06:37:34.738Z,86.00
2023-03-15T06:38:24.082Z,85.80
2023-03-15T06:39:23.071Z,85.80
2023-03-15T06:40:23.082Z,85.38
2023-03-15T06:41:23.094Z,85.49
2023-03-15T06:42:23.037Z,85.59
2023-03-15T06:43:23.033Z,85.28
2023-03-15T06:44:23.019Z,84.96
2023-03-15T06:45:23.001Z,84.96
2023-03-15T06:46:23.050Z,85.06
2023-03-15T06:47:23.015Z,85.24
2023-03-15T06:48:22.979Z,84.72
2023-03-15T06:49:22.981Z,84.61
2023-03-15T06:50:22.964Z,84.72
2023-03-15T06:51:22.967Z,84.41
2023-03-15T06:52:22.945Z,84.09
2023-03-15T06:53:22.943Z,83.99
2023-03-15T06:54:22.926Z,83.68
2023-03-15T06:55:22.895Z,83.78
2023-03-15T06:56:22.927Z,83.89
2023-03-15T06:57:22.883Z,83.99
2023-03-15T06:58:22.872Z,83.47
2023-03-15T06:59:22.881Z,83.53
2023-03-15T07:00:22.864Z,83.64
2023-03-15T07:01:22.900Z,83.74
2023-03-15T07:02:22.933Z,83.95
2023-03-15T07:03:22.845Z,83.22
2023-03-15T07:04:22.815Z,82.29
2023-03-15T07:05:22.793Z,82.29
2023-03-15T07:06:22.806Z,82.60
2023-03-15T07:07:22.786Z,82.81
2023-03-15T07:08:22.768Z,82.46
2023-03-15T07:09:22.765Z,81.94
2023-03-15T07:10:22.757Z,82.04
2023-03-15T07:11:22.731Z,82.25
2023-03-15T07:12:22.755Z,81.21
2023-03-15T07:13:22.729Z,81.11
2023-03-15T07:14:22.708Z,81.63
2023-03-15T07:15:22.708Z,80.90
2023-03-15T07:16:22.737Z,80.76
2023-03-15T07:17:22.689Z,80.87
2023-03-15T07:18:22.660Z,80.55
2023-03-15T07:19:22.654Z,80.04
2023-03-15T07:20:22.665Z,79.10
2023-03-15T07:21:22.657Z,79.10
2023-03-15T07:22:22.650Z,78.55
2023-03-15T07:23:22.620Z,78.44
2023-03-15T07:24:22.662Z,78.44
2023-03-15T07:25:22.614Z,78.13
2023-03-15T07:26:22.585Z,77.82
2023-03-15T07:27:22.566Z,77.72
2023-03-15T07:28:22.580Z,77.40
2023-03-15T07:29:22.554Z,77.51
2023-03-15T07:30:22.560Z,77.20
2023-03-15T07:31:22.530Z,77.37
2023-03-15T07:32:22.655Z,77.58
2023-03-15T07:33:22.660Z,77.06
2023-03-15T07:34:22.502Z,76.75
2023-03-15T07:35:22.493Z,77.16
2023-03-15T07:36:22.481Z,77.78
2023-03-15T07:37:22.468Z,77.26
2023-03-15T07:38:22.456Z,76.64
2023-03-15T07:39:22.462Z,76.12
2023-03-15T07:40:22.430Z,76.23
2023-03-15T07:41:22.434Z,76.43
2023-03-15T07:42:22.450Z,76.33
2023-03-15T07:43:22.450Z,76.43
2023-03-15T07:44:22.400Z,76.33
2023-03-15T07:45:22.386Z,75.46
2023-03-15T07:46:22.375Z,75.05
2023-03-15T07:47:22.373Z,74.22
2023-03-15T07:48:22.377Z,74.53
2023-03-15T07:49:22.352Z,74.95
2023-03-15T07:50:22.339Z,75.46
2023-03-15T07:51:22.386Z,75.78
2023-03-15T07:52:22.315Z,75.57
2023-03-15T07:53:22.299Z,74.95
2023-03-15T07:54:22.315Z,75.05
2023-03-15T07:55:22.277Z,75.02
2023-03-15T07:56:22.280Z,75.74
2023-03-15T07:57:22.246Z,76.05
2023-03-15T07:58:22.262Z,75.95
2023-03-15T07:59:22.247Z,75.84
2023-03-15T08:00:22.238Z,75.84
2023-03-15T08:01:22.237Z,76.26
2023-03-15T08:02:22.253Z,76.05
2023-03-15T08:03:22.269Z,76.15
2023-03-15T08:04:22.182Z,75.53
2023-03-15T08:05:22.202Z,76.26
2023-03-15T08:06:22.157Z,76.98
2023-03-15T08:07:22.157Z,77.19
2023-03-15T08:08:22.148Z,76.46
2023-03-15T08:09:22.136Z,76.43
2023-03-15T08:10:22.125Z,76.12
2023-03-15T08:11:22.102Z,76.32
2023-03-15T08:12:22.129Z,76.84
2023-03-15T08:13:22.109Z,76.64
2023-03-15T08:14:22.069Z,77.05
2023-03-15T08:15:22.069Z,76.84
2023-03-15T08:16:22.188Z,75.71
2023-03-15T08:17:22.073Z,75.40
2023-03-15T08:18:22.095Z,76.12
2023-03-15T08:19:22.041Z,74.98
2023-03-15T08:20:22.023Z,74.46
2023-03-15T08:21:22.018Z,74.67
2023-03-15T08:22:22.020Z,74.05
2023-03-15T08:23:22.029Z,74.43
2023-03-15T08:24:21.970Z,75.05
2023-03-15T08:25:21.971Z,74.84
2023-03-15T08:26:21.961Z,73.81
2023-03-15T08:27:21.942Z,74.53
2023-03-15T08:28:21.935Z,73.39
2023-03-15T08:29:21.936Z,72.46
2023-03-15T08:30:21.920Z,71.73
2023-03-15T08:31:22.001Z,72.77
2023-03-15T08:32:21.945Z,72.46
2023-03-15T08:33:21.891Z,72.43
2023-03-15T08:34:21.884Z,72.74
2023-03-15T08:35:21.926Z,71.81
2023-03-15T08:36:21.915Z,71.70
2023-03-15T08:37:21.842Z,71.29
2023-03-15T08:38:21.820Z,71.29
2023-03-15T08:39:21.818Z,70.64
2023-03-15T08:40:21.823Z,69.81
2023-03-15T08:41:21.792Z,69.19
2023-03-15T08:42:21.774Z,69.78
2023-03-15T08:43:21.884Z,69.57
2023-03-15T08:44:21.772Z,69.88
2023-03-15T08:45:21.766Z,69.95
2023-03-15T08:46:21.947Z,70.06
2023-03-15T08:47:21.732Z,69.71
2023-03-15T08:48:21.736Z,69.30
2023-03-15T08:49:21.711Z,68.78
2023-03-15T08:50:21.699Z,70.23
2023-03-15T08:51:21.682Z,70.12
2023-03-15T08:52:21.670Z,69.71
2023-03-15T08:53:21.669Z,69.58
2023-03-15T08:54:21.664Z,70.09
2023-03-15T08:55:21.636Z,70.20
2023-03-15T08:56:21.641Z,69.06
2023-03-15T08:57:21.642Z,68.24
2023-03-15T08:58:21.607Z,68.96
2023-03-15T08:59:31.450Z,69.68
2023-03-15T09:00:22.628Z,69.27
2023-03-15T09:01:21.580Z,69.17
2023-03-15T09:02:21.581Z,69.54
2023-03-15T09:03:21.549Z,69.13
2023-03-15T09:04:21.590Z,68.41
2023-03-15T09:05:21.531Z,68.30
2023-03-15T09:06:21.517Z,66.94
2023-03-15T09:07:21.511Z,66.21
2023-03-15T09:08:21.511Z,65.39
2023-03-15T09:09:21.508Z,64.36
2023-03-15T09:10:21.475Z,65.70
2023-03-15T09:11:21.490Z,64.67
2023-03-15T09:12:21.441Z,64.15
2023-03-15T09:13:21.459Z,63.32
2023-03-15T09:14:21.428Z,63.84
2023-03-15T09:15:21.478Z,64.04
2023-03-15T09:16:21.427Z,63.43
2023-03-15T09:17:21.397Z,64.15
2023-03-15T09:18:21.398Z,64.77
2023-03-15T09:19:21.387Z,64.46
2023-03-15T09:20:21.468Z,63.84
2023-03-15T09:21:21.372Z,64.22
2023-03-15T09:22:38.550Z,64.32
2023-03-15T09:23:22.340Z,63.92
2023-03-15T09:24:21.338Z,63.81
2023-03-15T09:25:21.343Z,64.64
2023-03-15T09:26:21.315Z,64.71
2023-03-15T09:27:21.312Z,65.33
2023-03-15T09:28:21.297Z,65.22
2023-03-15T09:29:21.296Z,64.99
2023-03-15T09:30:21.284Z,64.78
2023-03-15T09:31:21.338Z,63.85
2023-03-15T09:32:21.257Z,63.13
2023-03-15T09:33:21.250Z,61.52
2023-03-15T09:34:21.898Z,61.61
2023-03-15T09:35:21.251Z,62.24
2023-03-15T09:36:21.219Z,62.96
2023-03-15T09:37:21.218Z,63.47
2023-03-15T09:38:21.217Z,63.37
2023-03-15T09:39:21.248Z,63.57
2023-03-15T09:40:21.185Z,63.57
2023-03-15T09:41:21.142Z,62.65
2023-03-15T09:42:21.155Z,61.41
2023-03-15T09:43:21.160Z,60.69
2023-03-15T09:44:21.113Z,60.07
2023-03-15T09:45:21.115Z,60.49
2023-03-15T09:46:21.156Z,60.59
2023-03-15T09:47:21.092Z,60.38
2023-03-15T09:48:21.082Z,59.86
2023-03-15T09:49:21.062Z,59.04
2023-03-15T09:50:21.085Z,58.42
2023-03-15T09:51:21.052Z,58.22
2023-03-15T09:52:21.024Z,58.65
2023-03-15T09:53:21.033Z,58.45
2023-03-15T09:54:21.013Z,58.86
2023-03-15T09:55:21.040Z,59.35
2023-03-15T09:56:20.985Z,59.66
2023-03-15T09:57:20.983Z,59.86
2023-03-15T09:58:20.963Z,59.66
2023-03-15T09:59:20.963Z,59.94
2023-03-15T10:00:20.944Z,59.01
2023-03-15T10:01:20.979Z,59.33
2023-03-15T10:02:20.936Z,59.53
2023-03-15T10:03:21.010Z,59.12
2023-03-15T10:04:20.895Z,58.81
2023-03-15T10:05:20.907Z,58.70
2023-03-15T10:06:20.905Z,59.12
2023-03-15T10:07:20.884Z,58.91
2023-03-15T10:08:20.874Z,59.19
2023-03-15T10:09:20.869Z,59.50
2023-03-15T10:10:20.846Z,60.12
2023-03-15T10:11:20.828Z,59.89
2023-03-15T10:12:20.822Z,58.54
2023-03-15T10:13:20.806Z,58.75
2023-03-15T10:14:20.809Z,58.65
2023-03-15T10:15:20.787Z,58.34
2023-03-15T10:16:20.854Z,58.54
2023-03-15T10:17:20.789Z,58.75
2023-03-15T10:18:20.751Z,58.65
2023-03-15T10:19:20.761Z,58.65
2023-03-15T10:20:20.849Z,59.06
2023-03-15T10:21:20.743Z,59.37
2023-03-15T10:22:20.734Z,60.09
2023-03-15T10:23:20.723Z,59.78
2023-03-15T10:24:20.710Z,59.68
2023-03-15T10:25:20.699Z,59.68
2023-03-15T10:26:20.669Z,58.98
2023-03-15T10:27:20.680Z,58.68
2023-03-15T10:28:20.657Z,58.68
2023-03-15T10:29:20.665Z,59.50
2023-03-15T10:30:20.706Z,59.91
2023-03-15T10:31:22.536Z,59.81
2023-03-15T10:32:21.709Z,59.99
2023-03-15T10:33:20.596Z,60.09
2023-03-15T10:34:20.615Z,60.17
2023-03-15T10:35:20.591Z,59.86
2023-03-15T10:36:20.609Z,59.42
2023-03-15T10:37:20.554Z,58.08
2023-03-15T10:38:20.655Z,58.18
2023-03-15T10:39:20.552Z,57.67
2023-03-15T10:40:20.539Z,57.78
2023-03-15T10:41:28.771Z,57.46
2023-03-15T10:42:21.501Z,57.16
2023-03-15T10:43:20.485Z,57.16
2023-03-15T10:44:20.512Z,57.88
2023-03-15T10:45:20.473Z,56.72
2023-03-15T10:46:20.468Z,56.62
2023-03-15T10:47:24.004Z,56.72
2023-03-15T10:48:20.437Z,56.38
2023-03-15T10:49:20.451Z,56.59
2023-03-15T10:50:20.413Z,56.46
2023-03-15T10:51:20.406Z,55.95
2023-03-15T10:52:20.404Z,56.26
2023-03-15T10:53:20.378Z,56.87
2023-03-15T10:54:20.377Z,56.15
2023-03-15T10:55:20.383Z,56.36
2023-03-15T10:56:20.334Z,56.46
2023-03-15T10:57:20.324Z,56.87
2023-03-15T10:58:20.326Z,56.46
2023-03-15T10:59:20.316Z,56.77
2023-03-15T11:00:20.337Z,56.98
2023-03-15T11:01:20.329Z,57.18
2023-03-15T11:02:20.272Z,57.51
2023-03-15T11:03:20.288Z,56.79
2023-03-15T11:04:20.289Z,56.82
2023-03-15T11:05:20.251Z,57.67
2023-03-15T11:06:20.267Z,58.08
2023-03-15T11:07:20.242Z,58.18
2023-03-15T11:08:20.234Z,58.73
2023-03-15T11:09:20.218Z,59.14
2023-03-15T11:10:20.210Z,59.65
2023-03-15T11:11:20.206Z,60.06
2023-03-15T11:12:20.169Z,59.68
2023-03-15T11:13:20.187Z,59.45
2023-03-15T11:14:20.156Z,60.17
2023-03-15T11:15:20.150Z,60.06
2023-03-15T11:16:20.172Z,60.47
2023-03-15T11:17:20.127Z,59.65
2023-03-15T11:18:20.098Z,59.86
2023-03-15T11:19:20.117Z,59.52
2023-03-15T11:20:20.080Z,59.93
2023-03-15T11:21:20.067Z,59.93
2023-03-15T11:22:20.080Z,59.83
2023-03-15T11:23:20.076Z,58.91
2023-03-15T11:24:20.117Z,58.50
2023-03-15T11:25:20.029Z,58.50
2023-03-15T11:26:31.604Z,56.85
2023-03-15T11:27:21.028Z,56.95
2023-03-15T11:28:19.987Z,55.00
2023-03-15T11:29:19.999Z,55.62
2023-03-15T11:30:19.997Z,55.49
2023-03-15T11:31:19.976Z,55.38
2023-03-15T11:32:19.985Z,54.56
2023-03-15T11:33:19.947Z,55.28
2023-03-15T11:34:19.921Z,55.38
2023-03-15T11:35:19.947Z,55.49
2023-03-15T11:36:19.926Z,55.49
2023-03-15T11:37:19.919Z,54.97
2023-03-15T11:38:19.892Z,54.38
2023-03-15T11:39:19.922Z,54.28
2023-03-15T11:40:19.880Z,54.38
2023-03-15T11:41:19.861Z,54.38
2023-03-15T11:42:19.878Z,54.49
2023-03-15T11:43:19.854Z,55.00
2023-03-15T11:44:19.825Z,54.49
2023-03-15T11:45:19.822Z,54.28
2023-03-15T11:46:19.794Z,54.17
2023-03-15T11:47:19.824Z,54.49
2023-03-15T11:48:19.773Z,54.90
2023-03-15T11:49:19.772Z,55.00
2023-03-15T11:50:19.765Z,54.69
2023-03-15T11:51:19.784Z,55.41
2023-03-15T11:52:19.736Z,55.00
2023-03-15T11:53:19.749Z,55.62
2023-03-15T11:54:19.745Z,56.34
2023-03-15T11:55:19.724Z,56.74
2023-03-15T11:56:19.686Z,57.16
2023-03-15T11:57:19.686Z,57.36
2023-03-15T11:58:19.676Z,58.08
2023-03-15T11:59:19.662Z,57.88
2023-03-15T12:00:19.850Z,58.18
2023-03-15T12:01:19.635Z,58.06
2023-03-15T12:02:19.669Z,58.08
2023-03-15T12:03:19.716Z,59.19
2023-03-15T12:04:19.616Z,58.98
2023-03-15T12:05:19.615Z,58.78
2023-03-15T12:06:19.595Z,58.36
2023-03-15T12:07:19.612Z,58.36
2023-03-15T12:08:19.585Z,58.67
2023-03-15T12:09:19.575Z,59.19
2023-03-15T12:10:19.548Z,59.29
2023-03-15T12:11:19.546Z,58.95
2023-03-15T12:12:19.525Z,59.67
2023-03-15T12:13:19.532Z,59.26
2023-03-15T12:14:19.507Z,59.57
2023-03-15T12:15:19.574Z,59.26
2023-03-15T12:16:19.541Z,59.57
2023-03-15T12:17:19.490Z,59.91
2023-03-15T12:18:19.473Z,60.60
2023-03-15T12:19:19.438Z,61.00
2023-03-15T12:20:19.455Z,61.21
2023-03-15T12:21:19.439Z,60.91
2023-03-15T12:22:19.408Z,60.36
2023-03-15T12:23:19.415Z,60.16
2023-03-15T12:24:19.409Z,59.75
2023-03-15T12:25:19.407Z,59.95
2023-03-15T12:26:19.378Z,60.36
2023-03-15T12:27:19.357Z,60.13
2023-03-15T12:28:19.379Z,60.44
2023-03-15T12:29:19.339Z,59.82
2023-03-15T12:30:19.317Z,60.03
2023-03-15T12:31:19.382Z,58.90
2023-03-15T12:32:19.306Z,59.11
2023-03-15T12:33:19.285Z,59.44
2023-03-15T12:34:19.298Z,59.03
2023-03-15T12:35:19.279Z,59.13
2023-03-15T12:36:19.437Z,59.77
2023-03-15T12:37:19.267Z,60.29
2023-03-15T12:38:19.246Z,60.39
2023-03-15T12:39:19.236Z,60.49
2023-03-15T12:40:19.253Z,60.60
2023-03-15T12:41:19.196Z,60.80
2023-03-15T12:42:19.197Z,61.62
2023-03-15T12:43:19.189Z,64.40
2023-03-15T12:44:19.170Z,65.53
2023-03-15T12:45:19.196Z,65.94
2023-03-15T12:46:19.182Z,66.45
2023-03-15T12:47:19.147Z,67.27
2023-03-15T12:48:19.148Z,68.30
2023-03-15T12:49:19.116Z,68.64
2023-03-15T12:50:19.116Z,68.95
2023-03-15T12:51:19.096Z,69.77
2023-03-15T12:52:19.085Z,69.87